createdAt,value
2016-11-05T00:00:56.303Z,0
2016-11-05T00:01:56.379Z,0
2016-11-05T00:02:56.402Z,0
2016-11-05T00:03:56.455Z,0
2016-11-05T00:04:56.525Z,0
2016-11-05T00:05:56.580Z,0
2016-11-05T00:06:56.649Z,0
2016-11-05T00:07:56.712Z,0
2016-11-05T00:08:56.752Z,0
2016-11-05T00:09:56.799Z,0
2016-11-05T00:10:56.909Z,0
2016-11-05T00:11:56.928Z,0
2016-11-05T00:12:56.991Z,0
2016-11-05T00:13:57.031Z,0
2016-11-05T00:14:57.093Z,0
2016-11-05T00:15:57.130Z,0
2016-11-05T00:16:57.214Z,0
2016-11-05T00:17:57.286Z,0
2016-11-05T00:18:57.311Z,0
2016-11-05T00:19:57.680Z,0
2016-11-05T00:20:57.423Z,0
2016-11-05T00:21:57.533Z,0
2016-11-05T00:22:57.578Z,0
2016-11-05T00:23:57.592Z,0
2016-11-05T00:24:57.663Z,0
2016-11-05T00:25:57.719Z,0
2016-11-05T00:26:57.803Z,0
2016-11-05T00:27:57.828Z,0
2016-11-05T00:28:57.917Z,0
2016-11-05T00:29:57.960Z,0
2016-11-05T00:30:58.031Z,0
2016-11-05T00:31:58.087Z,0
2016-11-05T00:32:58.172Z,0
2016-11-05T00:33:58.197Z,0
2016-11-05T00:34:58.240Z,0
2016-11-05T00:35:58.288Z,0
2016-11-05T00:36:58.346Z,0
2016-11-05T00:37:58.393Z,0
2016-11-05T00:38:58.477Z,0
2016-11-05T00:39:58.524Z,0
2016-11-05T00:40:58.601Z,0
2016-11-05T00:41:58.635Z,0
2016-11-05T00:42:58.702Z,0
2016-11-05T00:43:58.744Z,0
2016-11-05T00:44:58.785Z,0
2016-11-05T00:45:58.873Z,0
2016-11-05T00:46:58.941Z,0
2016-11-05T00:47:58.975Z,0
2016-11-05T00:48:59.028Z,0
2016-11-05T00:49:59.089Z,0
2016-11-05T00:50:59.158Z,0
2016-11-05T00:51:59.210Z,0
2016-11-05T00:52:59.278Z,0
2016-11-05T00:53:59.343Z,0
2016-11-05T00:54:59.403Z,0
2016-11-05T00:55:59.421Z,0
2016-11-05T00:56:59.499Z,0
2016-11-05T00:57:59.544Z,0
2016-11-05T00:58:59.598Z,0
2016-11-05T00:59:59.676Z,0
2016-11-05T01:00:59.742Z,0
2016-11-05T01:01:59.786Z,0
2016-11-05T01:02:59.841Z,0
2016-11-05T01:03:59.882Z,0
2016-11-05T01:04:59.951Z,0
2016-11-05T01:05:59.993Z,0
2016-11-05T01:07:00.073Z,0
2016-11-05T01:08:00.100Z,0
2016-11-05T01:09:00.170Z,0
2016-11-05T01:10:00.207Z,0
2016-11-05T01:11:00.307Z,0
2016-11-05T01:12:00.345Z,0
2016-11-05T01:13:00.393Z,0
2016-11-05T01:14:00.472Z,0
2016-11-05T01:15:00.541Z,0
2016-11-05T01:16:00.585Z,0
2016-11-05T01:17:00.671Z,0
2016-11-05T01:18:00.684Z,0
2016-11-05T01:19:00.733Z,0
2016-11-05T01:20:00.814Z,0
2016-11-05T01:21:00.886Z,0
2016-11-05T01:22:00.928Z,0
2016-11-05T01:23:00.951Z,0
2016-11-05T01:24:01.040Z,0
2016-11-05T01:25:01.104Z,0
2016-11-05T01:26:01.138Z,0
2016-11-05T01:27:01.192Z,0
2016-11-05T01:28:01.277Z,0
2016-11-05T01:29:01.299Z,0
2016-11-05T01:30:01.372Z,0
2016-11-05T01:31:01.410Z,0
2016-11-05T01:32:01.460Z,0
2016-11-05T01:33:01.541Z,0
2016-11-05T01:34:01.623Z,0
2016-11-05T01:35:01.628Z,0
2016-11-05T01:36:01.706Z,0
2016-11-05T01:37:01.763Z,0
2016-11-05T01:38:01.817Z,0
2016-11-05T01:39:01.888Z,0
2016-11-05T01:40:01.949Z,0
2016-11-05T01:41:02.004Z,0
2016-11-05T01:42:02.066Z,0
2016-11-05T01:43:02.131Z,0
2016-11-05T01:44:02.170Z,0
2016-11-05T01:45:02.233Z,0
2016-11-05T01:46:02.276Z,0
2016-11-05T01:47:02.351Z,0
2016-11-05T01:48:02.397Z,0
2016-11-05T01:49:02.461Z,0
2016-11-05T01:50:02.521Z,0
2016-11-05T01:51:02.563Z,0
2016-11-05T01:52:02.609Z,0
2016-11-05T01:53:02.688Z,0
2016-11-05T01:54:02.717Z,0
2016-11-05T01:55:02.818Z,0
2016-11-05T01:56:02.838Z,0
2016-11-05T01:57:02.896Z,0
2016-11-05T01:58:02.960Z,0
2016-11-05T01:59:03.011Z,0
2016-11-05T02:00:03.067Z,0
2016-11-05T02:01:03.142Z,0
2016-11-05T02:02:03.179Z,0
2016-11-05T02:03:03.243Z,0
2016-11-05T02:04:03.308Z,0
2016-11-05T02:05:03.373Z,0
2016-11-05T02:06:03.427Z,0
2016-11-05T02:07:03.493Z,0
2016-11-05T02:08:03.529Z,0
2016-11-05T02:09:03.581Z,0
2016-11-05T02:10:03.672Z,0
2016-11-05T02:11:03.727Z,0
2016-11-05T02:12:03.767Z,0
2016-11-05T02:13:03.963Z,0
2016-11-05T02:14:03.863Z,0
2016-11-05T02:15:03.915Z,0
2016-11-05T02:16:03.981Z,0
2016-11-05T02:17:04.039Z,0
2016-11-05T02:18:04.115Z,0
2016-11-05T02:19:04.147Z,0
2016-11-05T02:20:04.208Z,0
2016-11-05T02:21:04.283Z,0
2016-11-05T02:22:04.322Z,0
2016-11-05T02:23:04.389Z,0
2016-11-05T02:24:04.441Z,0
2016-11-05T02:25:04.812Z,0
2016-11-05T02:26:04.599Z,0
2016-11-05T02:27:04.670Z,0
2016-11-05T02:28:04.658Z,0
2016-11-05T02:29:04.748Z,0
2016-11-05T02:30:04.780Z,0
2016-11-05T02:31:04.834Z,0
2016-11-05T02:32:04.884Z,0
2016-11-05T02:33:04.944Z,0
2016-11-05T02:34:05.027Z,0
2016-11-05T02:35:05.072Z,0
2016-11-05T02:36:05.128Z,0
2016-11-05T02:37:05.196Z,0
2016-11-05T02:38:05.244Z,0
2016-11-05T02:39:05.287Z,0
2016-11-05T02:40:05.366Z,0
2016-11-05T02:41:05.416Z,0
2016-11-05T02:42:05.463Z,0
2016-11-05T02:43:05.537Z,0
2016-11-05T02:44:05.582Z,0
2016-11-05T02:45:05.649Z,0
2016-11-05T02:46:05.689Z,0
2016-11-05T02:47:05.765Z,0
2016-11-05T02:48:06.110Z,0
2016-11-05T02:49:05.844Z,0
2016-11-05T02:50:05.933Z,0
2016-11-05T02:51:05.963Z,0
2016-11-05T02:52:06.047Z,0
2016-11-05T02:53:06.073Z,0
2016-11-05T02:54:06.200Z,0
2016-11-05T02:55:06.219Z,0
2016-11-05T02:56:06.243Z,0
2016-11-05T02:57:06.324Z,0
2016-11-05T02:58:06.412Z,0
2016-11-05T02:59:06.434Z,0
2016-11-05T03:00:06.504Z,0
2016-11-05T03:01:06.542Z,0
2016-11-05T03:02:06.835Z,0
2016-11-05T03:03:06.687Z,0
2016-11-05T03:04:06.718Z,0
2016-11-05T03:05:06.763Z,0
2016-11-05T03:06:07.136Z,0
2016-11-05T03:07:06.884Z,0
2016-11-05T03:08:06.950Z,0
2016-11-05T03:09:07.016Z,0
2016-11-05T03:10:07.076Z,0
2016-11-05T03:11:07.111Z,0
2016-11-05T03:12:07.485Z,0
2016-11-05T03:13:07.263Z,0
2016-11-05T03:14:07.283Z,0
2016-11-05T03:15:07.355Z,0
2016-11-05T03:16:07.411Z,0
2016-11-05T03:17:07.474Z,0
2016-11-05T03:18:07.537Z,0
2016-11-05T03:19:07.570Z,0
2016-11-05T03:20:07.625Z,0
2016-11-05T03:21:07.683Z,0
2016-11-05T03:22:07.767Z,0
2016-11-05T03:23:07.819Z,0
2016-11-05T03:24:07.865Z,0
2016-11-05T03:25:07.929Z,0
2016-11-05T03:26:07.987Z,0
2016-11-05T03:27:08.046Z,0
2016-11-05T03:28:08.087Z,0
2016-11-05T03:29:08.147Z,0
2016-11-05T03:30:08.181Z,0
2016-11-05T03:31:08.261Z,0
2016-11-05T03:32:08.307Z,0
2016-11-05T03:33:08.366Z,0
2016-11-05T03:34:08.448Z,0
2016-11-05T03:35:08.489Z,0
2016-11-05T03:36:08.850Z,0
2016-11-05T03:37:08.629Z,0
2016-11-05T03:38:08.761Z,0
2016-11-05T03:39:08.705Z,0
2016-11-05T03:40:08.760Z,0
2016-11-05T03:41:08.869Z,0
2016-11-05T03:42:08.904Z,0
2016-11-05T03:43:08.970Z,0
2016-11-05T03:44:08.979Z,0
2016-11-05T03:45:09.068Z,0
2016-11-05T03:46:09.093Z,0
2016-11-05T03:47:09.150Z,0
2016-11-05T03:48:09.247Z,0
2016-11-05T03:49:09.304Z,0
2016-11-05T03:50:09.353Z,0
2016-11-05T03:51:09.400Z,0
2016-11-05T03:52:09.777Z,0
2016-11-05T03:53:09.510Z,0
2016-11-05T03:54:09.779Z,0
2016-11-05T03:55:09.609Z,0
2016-11-05T03:56:09.685Z,0
2016-11-05T03:57:09.721Z,0
2016-11-05T03:58:09.803Z,0
2016-11-05T03:59:09.861Z,0
2016-11-05T04:00:09.909Z,0
2016-11-05T04:01:09.990Z,0
2016-11-05T04:02:10.026Z,0
2016-11-05T04:03:10.082Z,0
2016-11-05T04:04:10.168Z,0
2016-11-05T04:05:10.207Z,0
2016-11-05T04:06:10.245Z,0
2016-11-05T04:07:10.310Z,0
2016-11-05T04:08:10.388Z,0
2016-11-05T04:09:10.435Z,0
2016-11-05T04:10:10.473Z,0
2016-11-05T04:11:10.529Z,0
2016-11-05T04:12:10.590Z,0
2016-11-05T04:13:10.657Z,0
2016-11-05T04:14:10.720Z,0
2016-11-05T04:15:10.765Z,0
2016-11-05T04:16:10.849Z,0
2016-11-05T04:17:10.891Z,0
2016-11-05T04:18:10.946Z,0
2016-11-05T04:19:11.018Z,0
2016-11-05T04:20:11.048Z,0
2016-11-05T04:21:11.111Z,0
2016-11-05T04:22:11.148Z,0
2016-11-05T04:23:11.248Z,0
2016-11-05T04:24:11.250Z,0
2016-11-05T04:25:11.349Z,0
2016-11-05T04:26:11.393Z,0
2016-11-05T04:27:11.435Z,0
2016-11-05T04:28:11.479Z,0
2016-11-05T04:29:11.583Z,0
2016-11-05T04:30:11.667Z,0
2016-11-05T04:31:11.676Z,0
2016-11-05T04:32:11.743Z,0
2016-11-05T04:33:11.787Z,0
2016-11-05T04:34:11.854Z,0
2016-11-05T04:35:11.929Z,0
2016-11-05T04:36:11.964Z,0
2016-11-05T04:37:11.995Z,0
2016-11-05T04:38:12.069Z,0
2016-11-05T04:39:12.121Z,0
2016-11-05T04:40:12.191Z,0
2016-11-05T04:41:12.234Z,0
2016-11-05T04:42:12.312Z,0
2016-11-05T04:43:12.360Z,0
2016-11-05T04:44:12.404Z,0
2016-11-05T04:45:12.458Z,0
2016-11-05T04:46:12.532Z,0
2016-11-05T04:47:12.580Z,0
2016-11-05T04:48:12.643Z,0
2016-11-05T04:49:12.732Z,0
2016-11-05T04:50:12.767Z,0
2016-11-05T04:51:12.789Z,0
2016-11-05T04:52:12.901Z,0
2016-11-05T04:53:12.982Z,0
2016-11-05T04:54:12.979Z,0
2016-11-05T04:55:13.060Z,0
2016-11-05T04:56:13.128Z,0
2016-11-05T04:57:13.123Z,0
2016-11-05T04:58:13.274Z,0
2016-11-05T04:59:13.584Z,0
2016-11-05T05:00:13.323Z,0
2016-11-05T05:01:13.392Z,0
2016-11-05T05:02:13.446Z,0
2016-11-05T05:03:13.503Z,0
2016-11-05T05:04:13.562Z,0
2016-11-05T05:05:13.622Z,0
2016-11-05T05:06:13.652Z,0
2016-11-05T05:07:13.715Z,0
2016-11-05T05:08:13.794Z,0
2016-11-05T05:09:13.837Z,0
2016-11-05T05:10:13.869Z,0
2016-11-05T05:11:13.958Z,0
2016-11-05T05:12:14.016Z,0
2016-11-05T05:13:14.061Z,0
2016-11-05T05:14:14.115Z,0
2016-11-05T05:15:14.179Z,0
2016-11-05T05:16:14.209Z,0
2016-11-05T05:17:14.265Z,0
2016-11-05T05:18:14.350Z,0
2016-11-05T05:19:14.399Z,0
2016-11-05T05:20:14.452Z,0
2016-11-05T05:21:14.507Z,0
2016-11-05T05:22:14.576Z,0
2016-11-05T05:23:14.640Z,0
2016-11-05T05:24:14.678Z,0
2016-11-05T05:25:14.740Z,0
2016-11-05T05:26:14.809Z,0
2016-11-05T05:27:15.070Z,0
2016-11-05T05:28:14.923Z,0
2016-11-05T05:29:14.988Z,0
2016-11-05T05:30:15.033Z,0
2016-11-05T05:31:15.092Z,0
2016-11-05T05:32:15.127Z,0
2016-11-05T05:33:15.200Z,0
2016-11-05T05:34:15.278Z,0
2016-11-05T05:35:15.301Z,0
2016-11-05T05:36:15.386Z,0
2016-11-05T05:37:15.414Z,0
2016-11-05T05:38:15.491Z,0
2016-11-05T05:39:15.525Z,0
2016-11-05T05:40:15.570Z,0
2016-11-05T05:41:15.687Z,0
2016-11-05T05:42:15.701Z,0
2016-11-05T05:43:15.790Z,0
2016-11-05T05:44:15.830Z,0
2016-11-05T05:45:15.850Z,0
2016-11-05T05:46:15.956Z,0
2016-11-05T05:47:15.984Z,0
2016-11-05T05:48:16.063Z,0
2016-11-05T05:49:16.105Z,0
2016-11-05T05:50:16.175Z,0
2016-11-05T05:51:16.221Z,0
2016-11-05T05:52:16.288Z,0
2016-11-05T05:53:16.328Z,0
2016-11-05T05:54:16.384Z,0
2016-11-05T05:55:16.432Z,0
2016-11-05T05:56:16.526Z,0
2016-11-05T05:57:16.561Z,0
2016-11-05T05:58:16.621Z,0
2016-11-05T05:59:16.648Z,0
2016-11-05T06:00:16.756Z,0
2016-11-05T06:01:16.788Z,0
2016-11-05T06:02:16.834Z,0
2016-11-05T06:03:16.902Z,0
2016-11-05T06:04:16.969Z,0
2016-11-05T06:05:17.006Z,0
2016-11-05T06:06:17.072Z,0
2016-11-05T06:07:17.406Z,0
2016-11-05T06:08:17.189Z,0
2016-11-05T06:09:17.238Z,0
2016-11-05T06:10:17.286Z,0
2016-11-05T06:11:17.352Z,0
2016-11-05T06:12:17.428Z,0
2016-11-05T06:13:17.457Z,0
2016-11-05T06:14:17.519Z,0
2016-11-05T06:15:17.571Z,0
2016-11-05T06:16:17.649Z,0
2016-11-05T06:17:17.736Z,0
2016-11-05T06:18:17.744Z,0
2016-11-05T06:19:17.835Z,0
2016-11-05T06:20:17.869Z,0
2016-11-05T06:21:17.928Z,0
2016-11-05T06:22:17.965Z,0
2016-11-05T06:23:18.008Z,0
2016-11-05T06:24:18.088Z,0
2016-11-05T06:25:18.134Z,0
2016-11-05T06:26:18.197Z,0
2016-11-05T06:27:18.271Z,0
2016-11-05T06:28:18.352Z,0
2016-11-05T06:29:18.388Z,0
2016-11-05T06:30:18.472Z,0
2016-11-05T06:31:18.502Z,0
2016-11-05T06:32:18.524Z,0
2016-11-05T06:33:18.602Z,0
2016-11-05T06:34:18.671Z,0
2016-11-05T06:35:18.709Z,0
2016-11-05T06:36:18.839Z,0
2016-11-05T06:37:18.816Z,0
2016-11-05T06:38:18.880Z,0
2016-11-05T06:39:18.955Z,0
2016-11-05T06:40:18.988Z,0
2016-11-05T06:41:19.042Z,0
2016-11-05T06:42:19.112Z,0
2016-11-05T06:43:19.244Z,0
2016-11-05T06:44:19.208Z,0
2016-11-05T06:45:19.257Z,0
2016-11-05T06:46:19.332Z,0
2016-11-05T06:47:19.720Z,0
2016-11-05T06:48:19.456Z,0
2016-11-05T06:49:19.509Z,0
2016-11-05T06:50:19.560Z,0
2016-11-05T06:51:19.637Z,0
2016-11-05T06:52:19.681Z,0
2016-11-05T06:53:19.729Z,0
2016-11-05T06:54:19.821Z,0
2016-11-05T06:55:19.848Z,0
2016-11-05T06:56:19.922Z,0
2016-11-05T06:57:19.967Z,5
2016-11-05T06:58:20.001Z,5
2016-11-05T06:59:20.070Z,5
2016-11-05T07:00:20.138Z,5
2016-11-05T07:01:20.192Z,5
2016-11-05T07:02:20.538Z,5
2016-11-05T07:03:20.303Z,5
2016-11-05T07:04:20.380Z,5
2016-11-05T07:05:20.468Z,5
2016-11-05T07:06:20.469Z,5
2016-11-05T07:07:20.545Z,5
2016-11-05T07:08:20.606Z,5
2016-11-05T07:09:20.641Z,5
2016-11-05T07:10:20.704Z,5
2016-11-05T07:11:20.772Z,5
2016-11-05T07:12:21.206Z,5
2016-11-05T07:13:20.862Z,5
2016-11-05T07:14:20.923Z,5
2016-11-05T07:15:20.972Z,5
2016-11-05T07:16:21.065Z,5
2016-11-05T07:17:21.125Z,5
2016-11-05T07:18:21.222Z,5
2016-11-05T07:19:21.202Z,5
2016-11-05T07:20:21.262Z,5
2016-11-05T07:21:21.352Z,5
2016-11-05T07:22:21.399Z,5
2016-11-05T07:23:21.449Z,5
2016-11-05T07:24:21.502Z,5
2016-11-05T07:25:21.575Z,5
2016-11-05T07:26:21.622Z,5
2016-11-05T07:27:21.664Z,5
2016-11-05T07:28:21.740Z,5
2016-11-05T07:29:21.787Z,5
2016-11-05T07:30:21.818Z,5
2016-11-05T07:31:21.891Z,5
2016-11-05T07:32:22.040Z,5
2016-11-05T07:33:22.043Z,5
2016-11-05T07:34:22.092Z,5
2016-11-05T07:35:22.124Z,5
2016-11-05T07:36:22.193Z,5
2016-11-05T07:37:22.240Z,5
2016-11-05T07:38:22.275Z,5
2016-11-05T07:39:22.407Z,5
2016-11-05T07:40:22.416Z,5
2016-11-05T07:41:22.475Z,5
2016-11-05T07:42:22.519Z,10
2016-11-05T07:43:22.579Z,10
2016-11-05T07:44:22.638Z,10
2016-11-05T07:45:22.704Z,5
2016-11-05T07:46:22.746Z,5
2016-11-05T07:47:22.807Z,5
2016-11-05T07:48:22.872Z,5
2016-11-05T07:49:22.912Z,5
2016-11-05T07:50:22.993Z,5
2016-11-05T07:51:23.020Z,5
2016-11-05T07:52:23.119Z,5
2016-11-05T07:53:23.141Z,5
2016-11-05T07:54:23.210Z,5
2016-11-05T07:55:23.249Z,10
2016-11-05T07:56:23.319Z,10
2016-11-05T07:57:23.401Z,10
2016-11-05T07:58:23.442Z,10
2016-11-05T07:59:23.467Z,10
2016-11-05T08:00:23.546Z,10
2016-11-05T08:01:23.583Z,10
2016-11-05T08:02:23.640Z,10
2016-11-05T08:03:24.028Z,10
2016-11-05T08:04:23.774Z,10
2016-11-05T08:05:23.877Z,10
2016-11-05T08:06:23.876Z,10
2016-11-05T08:07:23.947Z,10
2016-11-05T08:08:24.017Z,10
2016-11-05T08:09:24.082Z,10
2016-11-05T08:10:24.117Z,10
2016-11-05T08:11:24.168Z,10
2016-11-05T08:12:24.249Z,10
2016-11-05T08:13:24.282Z,10
2016-11-05T08:14:24.337Z,15
2016-11-05T08:15:24.408Z,15
2016-11-05T08:16:24.443Z,10
2016-11-05T08:17:24.505Z,15
2016-11-05T08:18:24.578Z,15
2016-11-05T08:19:24.646Z,15
2016-11-05T08:20:24.674Z,10
2016-11-05T08:21:24.786Z,15
2016-11-05T08:22:24.808Z,15
2016-11-05T08:23:24.863Z,15
2016-11-05T08:24:25.123Z,15
2016-11-05T08:25:24.993Z,20
2016-11-05T08:26:25.046Z,20
2016-11-05T08:27:25.067Z,20
2016-11-05T08:28:25.133Z,20
2016-11-05T08:29:25.173Z,20
2016-11-05T08:30:25.271Z,20
2016-11-05T08:31:25.308Z,20
2016-11-05T08:32:25.374Z,15
2016-11-05T08:33:25.422Z,15
2016-11-05T08:34:25.484Z,15
2016-11-05T08:35:25.530Z,10
2016-11-05T08:36:25.621Z,10
2016-11-05T08:37:25.647Z,10
2016-11-05T08:38:25.719Z,15
2016-11-05T08:39:25.763Z,10
2016-11-05T08:40:25.969Z,10
2016-11-05T08:41:25.882Z,10
2016-11-05T08:42:25.921Z,10
2016-11-05T08:43:26.000Z,10
2016-11-05T08:44:26.040Z,10
2016-11-05T08:45:26.113Z,10
2016-11-05T08:46:26.173Z,10
2016-11-05T08:47:26.200Z,10
2016-11-05T08:48:26.279Z,10
2016-11-05T08:49:26.351Z,10
2016-11-05T08:50:26.395Z,10
2016-11-05T08:51:26.457Z,10
2016-11-05T08:52:26.504Z,10
2016-11-05T08:53:26.579Z,10
2016-11-05T08:54:26.662Z,10
2016-11-05T08:55:26.686Z,10
2016-11-05T08:56:26.759Z,10
2016-11-05T08:57:26.806Z,10
2016-11-05T08:58:27.163Z,10
2016-11-05T08:59:26.908Z,10
2016-11-05T09:00:26.983Z,10
2016-11-05T09:01:27.040Z,10
2016-11-05T09:02:27.070Z,10
2016-11-05T09:03:27.168Z,10
2016-11-05T09:04:27.203Z,10
2016-11-05T09:05:27.244Z,15
2016-11-05T09:06:27.303Z,15
2016-11-05T09:07:27.348Z,15
2016-11-05T09:08:27.402Z,20
2016-11-05T09:09:27.465Z,15
2016-11-05T09:10:27.546Z,15
2016-11-05T09:11:27.735Z,20
2016-11-05T09:12:27.625Z,15
2016-11-05T09:13:27.705Z,10
2016-11-05T09:14:27.743Z,10
2016-11-05T09:15:27.830Z,10
2016-11-05T09:16:27.978Z,10
2016-11-05T09:17:27.932Z,10
2016-11-05T09:18:28.004Z,10
2016-11-05T09:19:28.066Z,10
2016-11-05T09:20:28.138Z,10
2016-11-05T09:21:28.157Z,10
2016-11-05T09:22:28.213Z,10
2016-11-05T09:23:28.299Z,10
2016-11-05T09:24:28.362Z,10
2016-11-05T09:25:28.395Z,10
2016-11-05T09:26:28.494Z,10
2016-11-05T09:27:28.505Z,10
2016-11-05T09:28:28.580Z,10
2016-11-05T09:29:28.619Z,10
2016-11-05T09:30:28.684Z,10
2016-11-05T09:31:28.746Z,10
2016-11-05T09:32:28.788Z,5
2016-11-05T09:33:28.857Z,5
2016-11-05T09:34:28.922Z,5
2016-11-05T09:35:28.982Z,5
2016-11-05T09:36:29.036Z,5
2016-11-05T09:37:29.073Z,5
2016-11-05T09:38:29.159Z,5
2016-11-05T09:39:29.191Z,10
2016-11-05T09:40:29.251Z,10
2016-11-05T09:41:29.309Z,10
2016-11-05T09:42:29.356Z,10
2016-11-05T09:43:29.437Z,10
2016-11-05T09:44:29.463Z,10
2016-11-05T09:45:29.562Z,10
2016-11-05T09:46:29.577Z,10
2016-11-05T09:47:29.838Z,10
2016-11-05T09:48:29.733Z,10
2016-11-05T09:49:29.766Z,10
2016-11-05T09:50:29.802Z,10
2016-11-05T09:51:29.872Z,10
2016-11-05T09:52:29.912Z,10
2016-11-05T09:53:30.026Z,10
2016-11-05T09:54:30.091Z,5
2016-11-05T09:55:30.122Z,5
2016-11-05T09:56:30.166Z,10
2016-11-05T09:57:30.214Z,10
2016-11-05T09:58:30.280Z,10
2016-11-05T09:59:30.334Z,10
2016-11-05T10:00:30.423Z,10
2016-11-05T10:01:30.461Z,10
2016-11-05T10:02:30.508Z,10
2016-11-05T10:03:30.555Z,5
2016-11-05T10:04:30.639Z,5
2016-11-05T10:05:30.687Z,10
2016-11-05T10:06:30.712Z,10
2016-11-05T10:07:30.802Z,10
2016-11-05T10:08:30.846Z,15
2016-11-05T10:09:30.918Z,15
2016-11-05T10:10:30.979Z,10
2016-11-05T10:11:31.021Z,10
2016-11-05T10:12:31.069Z,15
2016-11-05T10:13:31.185Z,20
2016-11-05T10:14:31.183Z,25
2016-11-05T10:15:31.262Z,25
2016-11-05T10:16:31.314Z,25
2016-11-05T10:17:31.340Z,25
2016-11-05T10:18:31.429Z,20
2016-11-05T10:19:31.478Z,25
2016-11-05T10:20:31.527Z,25
2016-11-05T10:21:31.604Z,30
2016-11-05T10:22:31.667Z,30
2016-11-05T10:23:31.719Z,30
2016-11-05T10:24:31.856Z,25
2016-11-05T10:25:31.819Z,40
2016-11-05T10:26:31.885Z,50
2016-11-05T10:27:31.930Z,50
2016-11-05T10:28:31.968Z,45
2016-11-05T10:29:32.061Z,40
2016-11-05T10:30:32.134Z,35
2016-11-05T10:31:32.176Z,40
2016-11-05T10:32:32.225Z,35
2016-11-05T10:33:32.273Z,45
2016-11-05T10:34:32.422Z,30
2016-11-05T10:35:32.394Z,25
2016-11-05T10:36:32.458Z,25
2016-11-05T10:37:32.483Z,20
2016-11-05T10:38:32.568Z,15
2016-11-05T10:39:32.617Z,10
2016-11-05T10:40:32.717Z,10
2016-11-05T10:41:32.749Z,10
2016-11-05T10:42:32.815Z,5
2016-11-05T10:43:32.853Z,5
2016-11-05T10:44:32.933Z,5
2016-11-05T10:45:32.995Z,5
2016-11-05T10:46:33.041Z,5
2016-11-05T10:47:33.069Z,5
2016-11-05T10:48:33.188Z,10
2016-11-05T10:49:33.310Z,10
2016-11-05T10:50:33.273Z,10
2016-11-05T10:51:33.327Z,10
2016-11-05T10:52:33.337Z,10
2016-11-05T10:53:33.463Z,10
2016-11-05T10:54:33.473Z,10
2016-11-05T10:55:33.695Z,10
2016-11-05T10:56:33.599Z,15
2016-11-05T10:57:33.658Z,20
2016-11-05T10:58:33.691Z,25
2016-11-05T10:59:33.770Z,35
2016-11-05T11:00:33.913Z,45
2016-11-05T11:01:33.865Z,45
2016-11-05T11:02:33.937Z,40
2016-11-05T11:03:33.984Z,35
2016-11-05T11:04:34.054Z,30
2016-11-05T11:05:34.112Z,45
2016-11-05T11:06:34.148Z,40
2016-11-05T11:07:34.235Z,35
2016-11-05T11:08:34.291Z,40
2016-11-05T11:09:34.319Z,40
2016-11-05T11:10:34.403Z,30
2016-11-05T11:11:34.481Z,25
2016-11-05T11:12:34.501Z,20
2016-11-05T11:13:34.586Z,20
2016-11-05T11:14:34.611Z,20
2016-11-05T11:15:34.662Z,15
2016-11-05T11:16:34.748Z,15
2016-11-05T11:17:34.816Z,15
2016-11-05T11:18:34.849Z,15
2016-11-05T11:19:34.895Z,15
2016-11-05T11:20:34.979Z,15
2016-11-05T11:21:35.077Z,15
2016-11-05T11:22:35.111Z,15
2016-11-05T11:23:35.136Z,10
2016-11-05T11:24:35.174Z,15
2016-11-05T11:25:35.247Z,15
2016-11-05T11:26:35.295Z,20
2016-11-05T11:27:35.339Z,20
2016-11-05T11:28:35.415Z,20
2016-11-05T11:29:35.478Z,20
2016-11-05T11:30:35.550Z,20
2016-11-05T11:31:35.800Z,25
2016-11-05T11:32:35.648Z,30
2016-11-05T11:33:35.725Z,25
2016-11-05T11:34:35.749Z,25
2016-11-05T11:35:35.828Z,25
2016-11-05T11:36:35.907Z,20
2016-11-05T11:37:35.953Z,20
2016-11-05T11:38:36.032Z,20
2016-11-05T11:39:36.046Z,20
2016-11-05T11:40:36.099Z,20
2016-11-05T11:41:36.169Z,15
2016-11-05T11:42:36.227Z,15
2016-11-05T11:43:36.291Z,20
2016-11-05T11:44:36.347Z,25
2016-11-05T11:45:36.368Z,30
2016-11-05T11:46:36.468Z,40
2016-11-05T11:47:36.553Z,50
2016-11-05T11:48:36.587Z,50
2016-11-05T11:49:36.626Z,50
2016-11-05T11:50:36.697Z,45
2016-11-05T11:51:36.744Z,40
2016-11-05T11:52:36.808Z,40
2016-11-05T11:53:36.867Z,35
2016-11-05T11:54:36.912Z,35
2016-11-05T11:55:36.953Z,35
2016-11-05T11:56:37.041Z,40
2016-11-05T11:57:37.093Z,35
2016-11-05T11:58:37.135Z,30
2016-11-05T11:59:37.194Z,30
2016-11-05T12:00:37.263Z,25
2016-11-05T12:01:37.323Z,25
2016-11-05T12:02:37.359Z,25
2016-11-05T12:03:37.451Z,20
2016-11-05T12:04:37.490Z,15
2016-11-05T12:05:37.534Z,15
2016-11-05T12:06:37.609Z,15
2016-11-05T12:07:37.657Z,15
2016-11-05T12:08:37.707Z,15
2016-11-05T12:09:37.807Z,15
2016-11-05T12:10:37.872Z,15
2016-11-05T12:11:37.912Z,15
2016-11-05T12:12:37.955Z,15
2016-11-05T12:13:37.996Z,15
2016-11-05T12:14:38.076Z,15
2016-11-05T12:15:38.090Z,15
2016-11-05T12:16:38.195Z,10
2016-11-05T12:17:38.236Z,10
2016-11-05T12:18:38.312Z,10
2016-11-05T12:19:38.365Z,10
2016-11-05T12:20:38.441Z,10
2016-11-05T12:21:38.455Z,10
2016-11-05T12:22:38.503Z,10
2016-11-05T12:23:38.566Z,10
2016-11-05T12:24:38.613Z,10
2016-11-05T12:25:38.709Z,10
2016-11-05T12:26:38.740Z,10
2016-11-05T12:27:38.813Z,10
2016-11-05T12:28:38.843Z,10
2016-11-05T12:29:38.939Z,10
2016-11-05T12:30:38.984Z,10
2016-11-05T12:31:39.043Z,10
2016-11-05T12:32:39.084Z,15
2016-11-05T12:33:39.159Z,15
2016-11-05T12:34:39.210Z,15
2016-11-05T12:35:39.280Z,25
2016-11-05T12:36:39.318Z,30
2016-11-05T12:37:39.392Z,35
2016-11-05T12:38:39.426Z,25
2016-11-05T12:39:39.491Z,30
2016-11-05T12:40:39.556Z,40
2016-11-05T12:41:39.581Z,45
2016-11-05T12:42:39.674Z,45
2016-11-05T12:43:40.030Z,50
2016-11-05T12:44:39.939Z,45
2016-11-05T12:45:39.858Z,50
2016-11-05T12:46:39.880Z,40
2016-11-05T12:47:39.944Z,45
2016-11-05T12:48:40.012Z,40
2016-11-05T12:49:40.060Z,45
2016-11-05T12:50:40.124Z,45
2016-11-05T12:51:40.159Z,40
2016-11-05T12:52:40.235Z,40
2016-11-05T12:53:40.297Z,35
2016-11-05T12:54:40.356Z,35
2016-11-05T12:55:40.409Z,30
2016-11-05T12:56:40.459Z,30
2016-11-05T12:57:40.523Z,25
2016-11-05T12:58:40.589Z,25
2016-11-05T12:59:40.727Z,25
2016-11-05T13:00:40.702Z,25
2016-11-05T13:01:40.737Z,25
2016-11-05T13:02:40.814Z,30
2016-11-05T13:03:40.914Z,20
2016-11-05T13:04:40.944Z,20
2016-11-05T13:05:41.018Z,20
2016-11-05T13:06:41.053Z,20
2016-11-05T13:07:41.081Z,20
2016-11-05T13:08:41.146Z,20
2016-11-05T13:09:41.261Z,20
2016-11-05T13:10:41.238Z,20
2016-11-05T13:11:41.321Z,20
2016-11-05T13:12:41.388Z,25
2016-11-05T13:13:41.421Z,25
2016-11-05T13:14:41.496Z,25
2016-11-05T13:15:41.526Z,25
2016-11-05T13:16:41.609Z,25
2016-11-05T13:17:41.670Z,25
2016-11-05T13:18:41.703Z,25
2016-11-05T13:19:41.784Z,25
2016-11-05T13:20:41.856Z,25
2016-11-05T13:21:41.885Z,25
2016-11-05T13:22:41.950Z,25
2016-11-05T13:23:42.026Z,25
2016-11-05T13:24:42.064Z,20
2016-11-05T13:25:42.116Z,20
2016-11-05T13:26:42.182Z,20
2016-11-05T13:27:42.244Z,20
2016-11-05T13:28:42.309Z,25
2016-11-05T13:29:42.352Z,30
2016-11-05T13:30:42.397Z,25
2016-11-05T13:31:42.455Z,15
2016-11-05T13:32:42.529Z,15
2016-11-05T13:33:42.573Z,15
2016-11-05T13:34:42.638Z,20
2016-11-05T13:35:42.729Z,20
2016-11-05T13:36:42.755Z,20
2016-11-05T13:37:42.815Z,15
2016-11-05T13:38:42.880Z,15
2016-11-05T13:39:43.250Z,10
2016-11-05T13:40:42.979Z,15
2016-11-05T13:41:43.228Z,15
2016-11-05T13:42:43.131Z,15
2016-11-05T13:43:43.153Z,15
2016-11-05T13:44:43.207Z,15
2016-11-05T13:45:43.259Z,20
2016-11-05T13:46:43.323Z,20
2016-11-05T13:47:43.396Z,20
2016-11-05T13:48:43.423Z,15
2016-11-05T13:49:43.499Z,15
2016-11-05T13:50:43.573Z,15
2016-11-05T13:51:44.406Z,15
2016-11-05T13:52:43.681Z,15
2016-11-05T13:53:43.727Z,20
2016-11-05T13:54:43.774Z,25
2016-11-05T13:55:43.847Z,15
2016-11-05T13:56:43.902Z,10
2016-11-05T13:57:43.942Z,10
2016-11-05T13:58:44.030Z,10
2016-11-05T13:59:44.084Z,10
2016-11-05T14:00:44.144Z,10
2016-11-05T14:01:44.200Z,10
2016-11-05T14:02:44.266Z,15
2016-11-05T14:03:44.307Z,10
2016-11-05T14:04:44.372Z,5
2016-11-05T14:05:44.425Z,15
2016-11-05T14:06:44.487Z,15
2016-11-05T14:07:44.538Z,20
2016-11-05T14:08:44.616Z,15
2016-11-05T14:09:44.625Z,25
2016-11-05T14:10:44.693Z,20
2016-11-05T14:11:44.755Z,20
2016-11-05T14:12:44.846Z,20
2016-11-05T14:13:44.891Z,20
2016-11-05T14:14:44.924Z,10
2016-11-05T14:15:44.987Z,15
2016-11-05T14:16:45.044Z,20
2016-11-05T14:17:45.086Z,20
2016-11-05T14:18:45.162Z,20
2016-11-05T14:19:45.226Z,20
2016-11-05T14:20:45.288Z,15
2016-11-05T14:21:45.343Z,25
2016-11-05T14:22:45.402Z,25
2016-11-05T14:23:45.475Z,25
2016-11-05T14:24:45.509Z,20
2016-11-05T14:25:45.585Z,20
2016-11-05T14:26:45.617Z,20
2016-11-05T14:27:45.677Z,20
2016-11-05T14:28:45.790Z,20
2016-11-05T14:29:45.802Z,20
2016-11-05T14:30:45.847Z,15
2016-11-05T14:31:45.913Z,10
2016-11-05T14:32:45.956Z,5
2016-11-05T14:33:46.023Z,5
2016-11-05T14:34:46.101Z,5